Time;durP1;ratioP1;P1;durP2;ratioP2;P2;SDS_P1;SDS_P2;PMS_P1;PMS_P2;Temp;Humidity;BMP_temperature;BMP_pressure;BME280_temperature;BME280_humidity;BME280_pressure;Samples;Min_cycle;Max_cycle;Signal;HPM_P1;HPM_P2
2023/11/27 00:00:12;;;;;;;;;;;;;;;21.17;22.07;97015.34;5037451;28;849;-75
2023/11/27 00:02:38;;;;;;;;;;;;;;;21.31;22.06;97024.06;5013663;28;946;-75
2023/11/27 00:05:04;;;;;;;;;;;;;;;21.56;21.50;97030.75;4997789;28;1049;-74
2023/11/27 00:07:30;;;;;;;;;;;;;;;20.96;22.24;97031.13;4997759;28;849;-74
2023/11/27 00:09:55;;;;;;;;;;;;;;;20.95;22.54;97043.69;4998076;28;1910;-75
2023/11/27 00:12:21;;;;;;;;;;;;;;;20.89;22.32;97042.72;5013955;28;1011;-74
2023/11/27 00:14:46;;;;;;;;;;;;;;;20.91;22.34;97054.34;4981411;28;1147;-74
2023/11/27 00:17:12;;;;;;;;;;;;;;;21.05;22.34;97053.81;4997591;28;901;-75
2023/11/27 00:19:38;;;;;;;;;;;;;;;21.12;22.05;97056.34;4997775;28;798;-75
2023/11/27 00:22:03;;;;;;;;;;;;;;;21.03;22.16;97059.91;5013945;28;888;-75
2023/11/27 00:24:29;;;;;;;;;;;;;;;21.49;21.41;97067.81;4997725;28;1000;-74
2023/11/27 00:26:54;;;;;;;;;;;;;;;21.18;22.14;97065.78;5013729;28;914;-74
2023/11/27 00:29:20;;;;;;;;;;;;;;;21.28;21.94;97063.78;5013470;28;1906;-74
2023/11/27 00:31:45;;;;;;;;;;;;;;;21.13;22.18;97074.88;4997492;28;1260;-74
2023/11/27 00:34:11;;;;;;;;;;;;;;;21.21;21.95;97070.53;5044235;28;787;-74
2023/11/27 00:36:36;;;;;;;;;;;;;;;21.04;22.25;97077.69;5054741;28;778;-75
2023/11/27 00:39:02;;;;;;;;;;;;;;;21.03;22.03;97081.75;5013666;28;1373;-74
2023/11/27 00:41:28;;;;;;;;;;;;;;;20.60;22.43;97080.56;5013478;28;804;-74
2023/11/27 00:43:53;;;;;;;;;;;;;;;21.02;22.01;97077.34;4993854;28;949;-74
2023/11/27 00:46:19;;;;;;;;;;;;;;;20.79;22.31;97073.78;4945743;28;1245;-74
2023/11/27 00:48:44;;;;;;;;;;;;;;;20.89;22.34;97076.66;4964546;28;1973;-74
2023/11/27 00:51:13;;;;;;;;;;;;;;;20.96;22.09;97077.16;4981480;28;779;-74
2023/11/27 00:53:38;;;;;;;;;;;;;;;21.24;21.99;97091.44;4981318;28;1364;-74
2023/11/27 00:56:04;;;;;;;;;;;;;;;21.05;21.89;97085.69;4981683;28;1066;-74
2023/11/27 00:58:30;;;;;;;;;;;;;;;21.02;21.82;97091.50;4997342;28;784;-74
2023/11/27 01:00:57;;;;;;;;;;;;;;;21.35;21.40;97100.34;4997922;28;756;-75
2023/11/27 01:03:22;;;;;;;;;;;;;;;21.15;21.66;97097.84;4981157;28;1108;-74
2023/11/27 01:05:48;;;;;;;;;;;;;;;21.27;21.36;97096.97;4981133;28;826;-74
2023/11/27 01:08:14;;;;;;;;;;;;;;;21.14;21.99;97093.47;4965068;28;1235;-74
2023/11/27 01:10:40;;;;;;;;;;;;;;;21.22;21.77;97097.56;4980043;28;1180;-74
2023/11/27 01:13:06;;;;;;;;;;;;;;;21.03;21.88;97099.50;4984580;28;724;-74
2023/11/27 01:15:32;;;;;;;;;;;;;;;21.19;21.74;97104.16;5016650;28;1088;-75
2023/11/27 01:17:57;;;;;;;;;;;;;;;21.39;21.21;97103.00;5017026;28;790;-74
2023/11/27 01:20:23;;;;;;;;;;;;;;;21.18;21.49;97105.41;5021843;28;884;-74
2023/11/27 01:22:49;;;;;;;;;;;;;;;21.29;21.60;97099.31;5019729;28;1120;-75
2023/11/27 01:25:14;;;;;;;;;;;;;;;21.14;21.69;97098.31;5020112;28;1279;-74
2023/11/27 01:27:40;;;;;;;;;;;;;;;21.01;21.71;97101.22;5003708;28;1053;-74
2023/11/27 01:30:06;;;;;;;;;;;;;;;21.44;21.22;97105.22;5003402;28;1985;-74
2023/11/27 01:32:31;;;;;;;;;;;;;;;21.27;21.31;97113.16;4999926;28;1507;-75
2023/11/27 01:34:58;;;;;;;;;;;;;;;21.11;21.43;97114.16;4983829;28;1137;-74
2023/11/27 01:37:23;;;;;;;;;;;;;;;21.38;21.08;97124.06;4983911;28;1133;-74
2023/11/27 01:39:49;;;;;;;;;;;;;;;21.12;21.73;97117.78;5000078;28;1296;-74
2023/11/27 01:42:14;;;;;;;;;;;;;;;21.06;21.68;97126.09;4983442;28;1139;-73
2023/11/27 01:44:40;;;;;;;;;;;;;;;21.27;21.36;97130.91;4999974;28;1276;-74
2023/11/27 01:47:05;;;;;;;;;;;;;;;21.40;21.08;97124.38;4999780;28;1152;-74
2023/11/27 01:49:31;;;;;;;;;;;;;;;21.68;20.95;97136.63;5016248;28;1984;-74
2023/11/27 01:51:57;;;;;;;;;;;;;;;21.21;21.24;97137.66;5016362;28;739;-74
2023/11/27 01:54:23;;;;;;;;;;;;;;;21.26;21.10;97137.84;5030946;28;1187;-74
2023/11/27 01:56:48;;;;;;;;;;;;;;;21.19;21.34;97129.63;5036079;28;916;-74
2023/11/27 01:59:14;;;;;;;;;;;;;;;21.22;21.30;97148.50;4995586;28;1061;-74
2023/11/27 02:01:40;;;;;;;;;;;;;;;21.17;21.32;97149.09;4979909;28;1180;-74
2023/11/27 02:04:05;;;;;;;;;;;;;;;21.23;21.35;97141.56;4980233;28;869;-75
2023/11/27 02:06:31;;;;;;;;;;;;;;;21.22;21.43;97134.34;4996342;28;1150;-74
2023/11/27 02:08:56;;;;;;;;;;;;;;;21.14;21.28;97144.38;4978189;28;1910;-74
2023/11/27 02:11:22;;;;;;;;;;;;;;;21.18;21.36;97153.50;4963968;28;1292;-74
2023/11/27 02:13:48;;;;;;;;;;;;;;;21.04;21.55;97156.88;4980083;28;827;-74
2023/11/27 02:16:14;;;;;;;;;;;;;;;20.71;21.97;97150.81;4963803;28;1132;-74
2023/11/27 02:18:39;;;;;;;;;;;;;;;20.69;21.86;97161.81;4963872;28;795;-75
2023/11/27 02:21:05;;;;;;;;;;;;;;;21.06;21.40;97160.03;4963632;28;1093;-74
2023/11/27 02:23:31;;;;;;;;;;;;;;;21.11;21.27;97161.47;4960394;28;1140;-75
2023/11/27 02:25:56;;;;;;;;;;;;;;;21.14;21.21;97161.34;4960430;28;906;-74
2023/11/27 02:28:22;;;;;;;;;;;;;;;21.31;21.16;97159.91;4976288;28;1989;-75
2023/11/27 02:30:47;;;;;;;;;;;;;;;21.07;21.22;97155.94;4958913;28;862;-74
2023/11/27 02:33:13;;;;;;;;;;;;;;;20.99;21.66;97163.13;4979524;28;1433;-74
2023/11/27 02:35:39;;;;;;;;;;;;;;;21.21;21.38;97178.03;4979399;28;838;-74
2023/11/27 02:38:04;;;;;;;;;;;;;;;21.07;21.06;97178.56;4979540;28;893;-74
2023/11/27 02:40:30;;;;;;;;;;;;;;;21.10;21.18;97176.88;4979904;28;920;-74
2023/11/27 02:42:56;;;;;;;;;;;;;;;20.66;21.67;97177.63;4979334;28;1678;-74
2023/11/27 02:45:21;;;;;;;;;;;;;;;20.77;21.65;97178.03;4980810;28;930;-74
2023/11/27 02:47:47;;;;;;;;;;;;;;;20.83;21.69;97197.25;4998809;28;1191;-74
2023/11/27 02:50:13;;;;;;;;;;;;;;;20.96;21.72;97197.97;4956510;29;1895;-74
2023/11/27 02:52:42;;;;;;;;;;;;;;;21.04;21.28;97202.13;4940806;29;918;-74
2023/11/27 02:55:07;;;;;;;;;;;;;;;20.91;21.50;97204.22;4954982;28;1346;-74
2023/11/27 02:57:33;;;;;;;;;;;;;;;21.07;21.34;97201.97;4959858;28;1204;-74
2023/11/27 02:59:59;;;;;;;;;;;;;;;21.37;20.98;97210.22;4990806;28;814;-74
2023/11/27 03:02:25;;;;;;;;;;;;;;;21.05;21.24;97212.19;4995430;28;1107;-75
2023/11/27 03:04:50;;;;;;;;;;;;;;;21.21;21.01;97200.66;4956425;29;867;-74
2023/11/27 03:07:16;;;;;;;;;;;;;;;21.19;21.12;97211.66;4956294;29;826;-73
2023/11/27 03:09:42;;;;;;;;;;;;;;;20.86;21.36;97227.44;4940362;29;1902;-74
2023/11/27 03:12:08;;;;;;;;;;;;;;;20.98;21.25;97227.38;4924594;29;1188;-74
2023/11/27 03:14:33;;;;;;;;;;;;;;;20.94;21.44;97234.44;4956348;29;909;-74
2023/11/27 03:16:59;;;;;;;;;;;;;;;20.84;21.41;97249.72;4956132;29;928;-74
2023/11/27 03:19:24;;;;;;;;;;;;;;;20.98;21.48;97254.84;4940282;29;1649;-74
2023/11/27 03:21:50;;;;;;;;;;;;;;;20.59;22.18;97251.38;4985258;28;1247;-74
2023/11/27 03:24:15;;;;;;;;;;;;;;;21.11;21.24;97252.00;4998218;28;888;-74
2023/11/27 03:26:41;;;;;;;;;;;;;;;21.26;21.11;97253.84;4998270;28;841;-74
2023/11/27 03:29:06;;;;;;;;;;;;;;;20.86;21.67;97259.31;5010960;28;1902;-75
2023/11/27 03:31:32;;;;;;;;;;;;;;;21.36;21.25;97253.94;5010894;28;889;-74
2023/11/27 03:33:58;;;;;;;;;;;;;;;21.17;21.17;97259.41;4994626;28;1279;-74
2023/11/27 03:36:23;;;;;;;;;;;;;;;21.39;21.18;97250.16;5001206;28;1178;-74
2023/11/27 03:38:49;;;;;;;;;;;;;;;21.31;21.39;97244.00;5017575;28;1131;-74
2023/11/27 03:41:23;;;;;;;;;;;;;;;21.05;21.62;97263.09;5034320;28;774;-74
2023/11/27 03:43:49;;;;;;;;;;;;;;;21.02;21.47;97261.19;5034122;28;912;-74
2023/11/27 03:46:14;;;;;;;;;;;;;;;20.60;22.09;97263.47;5017526;28;1274;-75
2023/11/27 03:48:40;;;;;;;;;;;;;;;20.97;21.92;97270.25;5033724;28;1906;-74
2023/11/27 03:51:06;;;;;;;;;;;;;;;20.80;22.21;97267.59;5017396;28;1260;-74
2023/11/27 03:53:31;;;;;;;;;;;;;;;20.80;22.02;97264.78;5000686;28;1194;-74
2023/11/27 03:55:57;;;;;;;;;;;;;;;20.87;22.08;97277.06;5033776;28;899;-74
2023/11/27 03:58:22;;;;;;;;;;;;;;;20.86;22.28;97275.50;5033938;28;743;-73
2023/11/27 04:00:48;;;;;;;;;;;;;;;20.62;22.60;97273.06;5033719;28;814;-74
2023/11/27 04:03:14;;;;;;;;;;;;;;;21.21;21.95;97274.22;5038432;28;802;-74
2023/11/27 04:05:40;;;;;;;;;;;;;;;20.84;22.13;97283.66;5038445;28;711;-74
2023/11/27 04:08:06;;;;;;;;;;;;;;;21.24;21.95;97284.63;5054590;28;848;-74
2023/11/27 04:10:32;;;;;;;;;;;;;;;20.96;22.06;97288.47;5038057;28;1961;-74
2023/11/27 04:12:57;;;;;;;;;;;;;;;20.90;22.13;97290.31;5054869;28;727;-74
2023/11/27 04:15:23;;;;;;;;;;;;;;;20.59;22.76;97295.81;5054616;28;707;-74
2023/11/27 04:17:48;;;;;;;;;;;;;;;21.16;22.18;97296.66;5037844;28;759;-74
2023/11/27 04:20:16;;;;;;;;;;;;;;;21.03;22.30;97311.63;5054624;28;750;-75
2023/11/27 04:22:45;;;;;;;;;;;;;;;21.03;22.12;97308.00;5039872;28;772;-74
2023/11/27 04:25:11;;;;;;;;;;;;;;;20.98;22.45;97311.41;5017574;28;1418;-74
2023/11/27 04:27:36;;;;;;;;;;;;;;;20.93;22.24;97318.44;5001493;28;1155;-74
2023/11/27 04:30:02;;;;;;;;;;;;;;;21.05;22.18;97305.53;5001072;28;1987;-75
2023/11/27 04:32:28;;;;;;;;;;;;;;;20.74;22.66;97313.88;5001601;28;778;-74
2023/11/27 04:34:53;;;;;;;;;;;;;;;20.88;22.42;97318.25;5001408;28;823;-74
2023/11/27 04:37:19;;;;;;;;;;;;;;;20.67;22.86;97322.59;5001451;28;763;-74
2023/11/27 04:39:44;;;;;;;;;;;;;;;21.06;22.31;97318.41;4985154;28;783;-75
2023/11/27 04:42:10;;;;;;;;;;;;;;;21.29;21.94;97337.78;4997763;28;1108;-74
2023/11/27 04:44:36;;;;;;;;;;;;;;;20.94;22.42;97347.53;4981725;28;778;-74
2023/11/27 04:47:02;;;;;;;;;;;;;;;21.35;22.01;97348.53;4981468;28;1227;-74
2023/11/27 04:49:28;;;;;;;;;;;;;;;21.14;22.11;97359.38;4981523;28;1910;-74
2023/11/27 04:51:54;;;;;;;;;;;;;;;21.51;21.74;97359.72;4981512;28;801;-74
2023/11/27 04:54:20;;;;;;;;;;;;;;;21.38;21.86;97356.13;4965403;28;1285;-74
2023/11/27 04:56:45;;;;;;;;;;;;;;;21.07;22.53;97359.59;4965084;28;1173;-73
2023/11/27 04:59:11;;;;;;;;;;;;;;;21.31;22.09;97357.97;4965336;28;1266;-74
2023/11/27 05:01:36;;;;;;;;;;;;;;;20.91;22.74;97345.63;4965213;28;860;-74
2023/11/27 05:04:02;;;;;;;;;;;;;;;21.08;22.41;97350.66;4997344;28;785;-74
2023/11/27 05:06:28;;;;;;;;;;;;;;;21.26;22.49;97350.03;4981326;28;832;-74
2023/11/27 05:08:54;;;;;;;;;;;;;;;21.32;22.06;97353.09;4981013;28;1985;-74
2023/11/27 05:11:20;;;;;;;;;;;;;;;21.26;22.23;97355.69;4981116;28;813;-75
2023/11/27 05:13:47;;;;;;;;;;;;;;;20.88;22.77;97349.34;4979339;28;1206;-75
2023/11/27 05:16:12;;;;;;;;;;;;;;;20.88;23.07;97340.84;5000586;28;1116;-74
2023/11/27 05:18:38;;;;;;;;;;;;;;;21.12;22.74;97349.75;5019638;28;1179;-74
2023/11/27 05:21:03;;;;;;;;;;;;;;;21.27;22.25;97353.66;5040746;28;851;-74
2023/11/27 05:23:29;;;;;;;;;;;;;;;21.01;22.55;97352.94;5057446;28;798;-74
2023/11/27 05:25:54;;;;;;;;;;;;;;;21.13;22.42;97362.63;5058848;28;723;-74
2023/11/27 05:28:20;;;;;;;;;;;;;;;21.41;22.32;97360.88;5058377;28;746;-74
2023/11/27 05:30:45;;;;;;;;;;;;;;;21.32;22.14;97370.88;5040883;28;1979;-74
2023/11/27 05:33:11;;;;;;;;;;;;;;;20.93;22.57;97382.69;5057297;28;755;-74
2023/11/27 05:35:36;;;;;;;;;;;;;;;21.10;22.49;97377.72;5039075;28;873;-74
2023/11/27 05:38:02;;;;;;;;;;;;;;;21.32;21.95;97382.19;5057124;28;869;-74
2023/11/27 05:40:28;;;;;;;;;;;;;;;20.86;22.77;97385.78;5019335;28;1035;-74
2023/11/27 05:42:54;;;;;;;;;;;;;;;21.12;22.69;97392.97;5003087;28;1148;-74
2023/11/27 05:45:20;;;;;;;;;;;;;;;21.35;21.93;97402.31;5003418;28;1184;-74
2023/11/27 05:47:45;;;;;;;;;;;;;;;21.26;22.08;97412.28;5003294;28;889;-74
2023/11/27 05:50:14;;;;;;;;;;;;;;;21.47;21.99;97401.50;5003182;28;1977;-74
2023/11/27 05:52:39;;;;;;;;;;;;;;;21.28;22.35;97409.78;5003525;28;771;-73
2023/11/27 05:55:05;;;;;;;;;;;;;;;21.04;22.23;97405.78;5019225;28;1430;-74
2023/11/27 05:57:34;;;;;;;;;;;;;;;21.19;22.21;97403.22;5019258;28;939;-74
2023/11/27 06:00:00;;;;;;;;;;;;;;;21.31;22.19;97411.72;5019421;28;1333;-74
2023/11/27 06:02:26;;;;;;;;;;;;;;;21.23;21.92;97403.91;5003035;28;1175;-75
2023/11/27 06:04:51;;;;;;;;;;;;;;;21.17;21.94;97411.41;5019490;28;985;-74
2023/11/27 06:07:17;;;;;;;;;;;;;;;21.46;21.51;97408.41;5002989;28;1225;-74
2023/11/27 06:09:42;;;;;;;;;;;;;;;21.44;21.70;97406.03;5015586;28;1975;-75
2023/11/27 06:12:10;;;;;;;;;;;;;;;21.32;21.61;97404.81;5031129;28;1011;-74
2023/11/27 06:14:36;;;;;;;;;;;;;;;21.42;21.53;97407.75;5035392;28;899;-74
2023/11/27 06:17:01;;;;;;;;;;;;;;;21.36;21.52;97420.91;5035794;28;842;-74
2023/11/27 06:19:27;;;;;;;;;;;;;;;21.32;21.54;97433.13;5035548;28;899;-74
2023/11/27 06:21:52;;;;;;;;;;;;;;;21.35;21.83;97436.28;4996102;28;920;-73
2023/11/27 06:24:18;;;;;;;;;;;;;;;21.39;21.75;97454.72;4979301;28;979;-74
2023/11/27 06:26:43;;;;;;;;;;;;;;;21.29;21.58;97447.34;4995779;28;758;-74
2023/11/27 06:29:09;;;;;;;;;;;;;;;21.37;21.72;97450.78;4995881;28;1910;-74
2023/11/27 06:31:35;;;;;;;;;;;;;;;21.06;21.84;97457.81;4979466;28;930;-74
2023/11/27 06:34:00;;;;;;;;;;;;;;;21.26;21.62;97457.56;4995878;28;790;-74
2023/11/27 06:36:26;;;;;;;;;;;;;;;21.38;21.57;97458.00;4963424;28;1147;-74
2023/11/27 06:38:51;;;;;;;;;;;;;;;20.95;21.75;97460.19;4963432;28;1324;-74
2023/11/27 06:41:17;;;;;;;;;;;;;;;21.13;21.45;97468.09;4980802;28;1003;-74
2023/11/27 06:43:42;;;;;;;;;;;;;;;21.28;21.34;97471.25;4960159;28;1140;-75
2023/11/27 06:46:11;;;;;;;;;;;;;;;21.19;21.36;97468.31;4974393;28;816;-75
2023/11/27 06:48:37;;;;;;;;;;;;;;;21.33;21.33;97474.31;4995302;28;1993;-74
2023/11/27 06:51:03;;;;;;;;;;;;;;;21.26;21.36;97474.53;4995397;28;751;-73
2023/11/27 06:53:28;;;;;;;;;;;;;;;21.39;20.96;97470.91;5013313;28;1115;-74
2023/11/27 06:55:54;;;;;;;;;;;;;;;21.11;21.46;97467.75;5001862;28;1216;-74
2023/11/27 06:58:19;;;;;;;;;;;;;;;21.14;21.12;97480.19;5002028;28;1236;-74
2023/11/27 07:00:45;;;;;;;;;;;;;;;21.46;20.75;97487.66;5018212;28;1124;-74
2023/11/27 07:03:10;;;;;;;;;;;;;;;21.61;20.68;97500.09;5018043;28;1070;-74
2023/11/27 07:05:36;;;;;;;;;;;;;;;21.23;20.77;97497.28;5034792;28;825;-74
2023/11/27 07:08:01;;;;;;;;;;;;;;;21.58;20.48;97503.81;5018109;28;933;-74
2023/11/27 07:10:28;;;;;;;;;;;;;;;21.05;20.93;97507.16;5017922;28;1975;-75
2023/11/27 07:12:55;;;;;;;;;;;;;;;21.22;20.91;97504.97;5034618;28;878;-74
2023/11/27 07:15:20;;;;;;;;;;;;;;;21.27;20.67;97497.97;5018004;28;1225;-75
2023/11/27 07:17:46;;;;;;;;;;;;;;;21.51;20.67;97501.25;5034306;28;731;-74
2023/11/27 07:20:17;;;;;;;;;;;;;;;21.27;20.82;97504.41;4985034;28;1147;-73
2023/11/27 07:22:44;;;;;;;;;;;;;;;21.42;20.47;97503.97;5018840;28;716;-75
2023/11/27 07:25:09;;;;;;;;;;;;;;;21.23;20.52;97520.69;5034159;28;1243;-74
2023/11/27 07:27:35;;;;;;;;;;;;;;;20.99;20.84;97516.66;5055894;28;743;-74
2023/11/27 07:30:01;;;;;;;;;;;;;;;21.14;20.73;97519.81;5014288;28;1902;-74
2023/11/27 07:32:26;;;;;;;;;;;;;;;21.36;20.84;97517.91;4975148;28;1089;-75
2023/11/27 07:34:52;;;;;;;;;;;;;;;21.10;20.93;97524.81;4975477;28;889;-74
2023/11/27 07:37:17;;;;;;;;;;;;;;;21.14;20.70;97531.13;4975424;28;864;-74
2023/11/27 07:39:44;;;;;;;;;;;;;;;21.29;20.57;97541.53;4975407;28;998;-74
2023/11/27 07:42:10;;;;;;;;;;;;;;;21.13;20.67;97550.13;4959243;28;1104;-74
2023/11/27 07:44:35;;;;;;;;;;;;;;;21.01;20.84;97548.09;4921006;29;908;-75
2023/11/27 07:47:01;;;;;;;;;;;;;;;21.06;20.69;97551.16;4917608;29;1225;-74
2023/11/27 07:49:27;;;;;;;;;;;;;;;21.23;20.49;97549.00;4917713;29;1899;-74
2023/11/27 07:51:57;;;;;;;;;;;;;;;21.37;20.41;97553.44;4933345;29;1210;-74
2023/11/27 07:54:23;;;;;;;;;;;;;;;20.99;20.78;97556.25;4916854;29;1145;-74
2023/11/27 07:56:48;;;;;;;;;;;;;;;20.96;21.28;97557.16;4916573;29;1025;-74
2023/11/27 07:59:15;;;;;;;;;;;;;;;20.88;21.07;97559.41;4901916;29;1029;-74
2023/11/27 08:01:42;;;;;;;;;;;;;;;21.03;20.84;97569.03;4897418;29;1310;-75
2023/11/27 08:04:08;;;;;;;;;;;;;;;21.24;20.70;97584.56;4947077;29;1041;-74
2023/11/27 08:06:34;;;;;;;;;;;;;;;21.10;20.82;97579.34;4939614;29;1137;-74
2023/11/27 08:08:59;;;;;;;;;;;;;;;21.24;21.02;97578.91;4955327;29;1967;-74
2023/11/27 08:11:29;;;;;;;;;;;;;;;20.88;21.34;97581.22;4939458;29;896;-74
2023/11/27 08:13:54;;;;;;;;;;;;;;;20.81;21.46;97580.19;4924080;29;1101;-74
2023/11/27 08:16:20;;;;;;;;;;;;;;;20.75;21.64;97593.31;4939390;29;969;-74
2023/11/27 08:18:45;;;;;;;;;;;;;;;20.81;21.47;97597.16;4955677;29;874;-74
2023/11/27 08:21:11;;;;;;;;;;;;;;;20.80;21.42;97601.25;4955251;29;889;-74
2023/11/27 08:23:37;;;;;;;;;;;;;;;20.91;21.45;97589.59;4955216;28;865;-74
2023/11/27 08:26:05;;;;;;;;;;;;;;;20.88;21.39;97595.38;4942796;28;1365;-74
2023/11/27 08:28:32;;;;;;;;;;;;;;;21.00;21.30;97603.09;5006073;28;780;-74
2023/11/27 08:30:57;;;;;;;;;;;;;;;20.92;21.47;97590.41;4997796;28;1148;-75
2023/11/27 08:33:25;;;;;;;;;;;;;;;20.98;21.39;97591.41;4955308;29;1264;-74
2023/11/27 08:35:51;;;;;;;;;;;;;;;21.18;21.23;97597.66;4954826;28;883;-74
2023/11/27 08:38:17;;;;;;;;;;;;;;;21.33;21.27;97604.50;4978101;28;1233;-74
2023/11/27 08:40:42;;;;;;;;;;;;;;;21.28;21.09;97602.19;4955533;28;996;-74
2023/11/27 08:43:08;;;;;;;;;;;;;;;21.19;21.37;97619.06;4955440;28;816;-74
2023/11/27 08:45:34;;;;;;;;;;;;;;;21.11;21.54;97609.22;4923400;28;1249;-74
2023/11/27 08:48:00;;;;;;;;;;;;;;;21.04;21.65;97620.75;4939486;29;788;-74
2023/11/27 08:50:27;;;;;;;;;;;;;;;20.84;21.89;97612.47;4923498;28;1902;-74
2023/11/27 08:52:59;;;;;;;;;;;;;;;20.93;21.92;97623.09;4923912;28;1097;-74
2023/11/27 08:55:28;;;;;;;;;;;;;;;20.71;22.47;97611.63;4939118;29;1059;-74
2023/11/27 08:58:04;;;;;;;;;;;;;;;21.09;21.77;97594.72;4955212;28;795;-74
2023/11/27 09:00:34;;;;;;;;;;;;;;;21.06;22.05;97595.63;4936412;29;1069;-73
2023/11/27 09:03:00;;;;;;;;;;;;;;;20.96;22.03;97596.75;4920244;29;1091;-74
2023/11/27 09:05:31;;;;;;;;;;;;;;;20.90;22.32;97592.91;4952632;29;948;-74
2023/11/27 09:08:00;;;;;;;;;;;;;;;21.17;22.01;97601.75;4955572;28;880;-74
2023/11/27 09:10:25;;;;;;;;;;;;;;;20.80;22.44;97601.25;4920007;29;2005;-74
2023/11/27 09:12:51;;;;;;;;;;;;;;;20.75;22.63;97609.50;4920073;29;1073;-74
2023/11/27 09:15:17;;;;;;;;;;;;;;;21.03;22.14;97602.19;4920253;29;1240;-74
2023/11/27 09:17:43;;;;;;;;;;;;;;;21.06;22.30;97602.06;4920152;29;736;-75
2023/11/27 09:20:10;;;;;;;;;;;;;;;21.17;22.14;97607.41;4919924;29;1019;-74
2023/11/27 09:22:39;;;;;;;;;;;;;;;20.96;22.34;97611.69;4920342;29;799;-73
2023/11/27 09:25:08;;;;;;;;;;;;;;;21.17;22.28;97607.41;4919944;29;936;-74
2023/11/27 09:27:37;;;;;;;;;;;;;;;20.91;22.56;97603.75;4920025;29;818;-74
2023/11/27 09:30:04;;;;;;;;;;;;;;;20.99;22.32;97612.81;4919767;29;1903;-74
2023/11/27 09:32:29;;;;;;;;;;;;;;;21.01;22.50;97594.16;4920021;29;888;-73
2023/11/27 09:34:55;;;;;;;;;;;;;;;21.08;22.28;97587.47;4920062;29;900;-73
2023/11/27 09:37:21;;;;;;;;;;;;;;;21.11;22.40;97589.41;4970970;28;944;-74
2023/11/27 09:39:46;;;;;;;;;;;;;;;21.16;22.65;97600.16;4961461;28;804;-74
2023/11/27 09:42:12;;;;;;;;;;;;;;;21.10;22.42;97587.81;4993528;28;771;-74
2023/11/27 09:44:37;;;;;;;;;;;;;;;21.08;22.64;97587.47;5016261;28;919;-74
2023/11/27 09:47:03;;;;;;;;;;;;;;;21.08;22.21;97602.41;5016532;28;1014;-74
2023/11/27 09:49:31;;;;;;;;;;;;;;;21.05;22.52;97611.81;4999812;28;1969;-74
2023/11/27 09:51:58;;;;;;;;;;;;;;;20.99;22.56;97612.81;5016354;28;911;-74
2023/11/27 09:54:25;;;;;;;;;;;;;;;21.22;22.42;97615.31;5000299;28;1057;-74
2023/11/27 09:56:51;;;;;;;;;;;;;;;21.28;22.56;97607.84;5016345;28;692;-74
2023/11/27 09:59:17;;;;;;;;;;;;;;;21.05;22.42;97616.69;5015979;28;1077;-74
2023/11/27 10:01:42;;;;;;;;;;;;;;;21.55;22.16;97615.13;5015949;28;918;-74
2023/11/27 10:04:08;;;;;;;;;;;;;;;21.39;22.51;97603.91;5019374;28;1075;-74
2023/11/27 10:06:34;;;;;;;;;;;;;;;21.07;22.56;97602.88;5057773;28;791;-74
2023/11/27 10:09:00;;;;;;;;;;;;;;;21.02;22.96;97594.94;5040081;28;1898;-74
2023/11/27 10:11:26;;;;;;;;;;;;;;;21.14;22.74;97585.69;5039907;28;1166;-74
2023/11/27 10:13:51;;;;;;;;;;;;;;;21.28;22.41;97584.44;5035709;28;959;-74
2023/11/27 10:16:18;;;;;;;;;;;;;;;20.91;22.80;97589.59;5018963;28;1454;-74
2023/11/27 10:18:44;;;;;;;;;;;;;;;21.00;22.83;97577.63;5019449;28;755;-74
2023/11/27 10:21:14;;;;;;;;;;;;;;;20.91;23.04;97577.50;5018349;28;857;-74
2023/11/27 10:23:44;;;;;;;;;;;;;;;21.02;22.89;97580.78;5035641;28;1033;-74
2023/11/27 10:26:09;;;;;;;;;;;;;;;21.18;22.68;97583.50;5019324;28;850;-74
2023/11/27 10:28:45;;;;;;;;;;;;;;;21.20;22.81;97583.88;5018740;28;1102;-74
2023/11/27 10:31:11;;;;;;;;;;;;;;;21.11;22.88;97595.06;5018896;28;1286;-75
2023/11/27 10:33:37;;;;;;;;;;;;;;;20.77;23.53;97585.16;5018942;28;823;-74
2023/11/27 10:36:05;;;;;;;;;;;;;;;21.14;23.00;97597.00;5018280;28;795;-75
2023/11/27 10:38:30;;;;;;;;;;;;;;;20.96;22.98;97596.75;5002736;28;909;-74
2023/11/27 10:40:56;;;;;;;;;;;;;;;21.15;22.85;97604.25;5035441;28;767;-74
2023/11/27 10:43:22;;;;;;;;;;;;;;;21.10;22.83;97604.81;4998797;28;1203;-73
2023/11/27 10:45:48;;;;;;;;;;;;;;;21.04;22.96;97598.91;5033195;28;770;-74
2023/11/27 10:48:14;;;;;;;;;;;;;;;20.99;23.10;97601.50;5035132;28;850;-74
2023/11/27 10:50:39;;;;;;;;;;;;;;;21.06;22.97;97598.47;5034739;28;1983;-74
2023/11/27 10:53:05;;;;;;;;;;;;;;;21.02;22.79;97594.94;5034961;28;897;-74
2023/11/27 10:55:31;;;;;;;;;;;;;;;21.22;22.71;97598.34;5018102;28;1252;-75
2023/11/27 10:57:57;;;;;;;;;;;;;;;21.08;23.02;97593.13;5018172;28;811;-74
2023/11/27 11:00:46;;;;;;;;;;;;;;;21.03;23.29;97596.53;5014685;28;867;-74
2023/11/27 11:03:14;;;;;;;;;;;;;;;21.33;22.62;97598.81;5015042;28;888;-74
2023/11/27 11:05:49;;;;;;;;;;;;;;;21.21;22.71;97608.09;5014999;28;858;-73
2023/11/27 11:08:17;;;;;;;;;;;;;;;21.14;22.87;97590.53;4995200;28;946;-74
2023/11/27 11:10:43;;;;;;;;;;;;;;;20.94;23.28;97585.09;4979221;28;1895;-74
2023/11/27 11:13:12;;;;;;;;;;;;;;;20.96;23.28;97585.44;4963064;28;1200;-74
2023/11/27 11:15:58;;;;;;;;;;;;;;;21.25;22.75;97591.00;4995633;28;736;-74
2023/11/27 11:18:43;;;;;;;;;;;;;;;21.35;22.63;97594.75;4994963;28;1113;-74
2023/11/27 11:21:39;;;;;;;;;;;;;;;21.36;22.58;97585.03;4994945;28;763;-74
2023/11/27 11:24:15;;;;;;;;;;;;;;;21.43;22.36;97579.91;4921008;29;1284;-75
2023/11/27 11:26:43;;;;;;;;;;;;;;;21.40;22.58;97585.69;4921116;29;823;-74
2023/11/27 11:29:14;;;;;;;;;;;;;;;21.11;23.21;97578.09;4936709;29;1903;-73
2023/11/27 11:31:48;;;;;;;;;;;;;;;20.92;23.29;97590.41;4936693;29;878;-74
2023/11/27 11:34:23;;;;;;;;;;;;;;;21.06;23.02;97581.47;4936703;29;911;-74
2023/11/27 11:36:57;;;;;;;;;;;;;;;21.11;22.95;97580.91;4936762;29;808;-74
2023/11/27 11:39:24;;;;;;;;;;;;;;;21.30;22.81;97588.44;4950966;28;981;-74
2023/11/27 11:41:55;;;;;;;;;;;;;;;21.20;22.96;97583.88;4975275;28;855;-74
2023/11/27 11:44:21;;;;;;;;;;;;;;;21.52;22.54;97599.06;4975299;28;875;-75
2023/11/27 11:46:46;;;;;;;;;;;;;;;21.24;22.97;97595.06;4975445;28;919;-74
2023/11/27 11:49:15;;;;;;;;;;;;;;;21.18;22.95;97592.00;4975241;28;1975;-73
2023/11/27 11:52:02;;;;;;;;;;;;;;;21.23;22.98;97588.59;4975331;28;771;-74
2023/11/27 11:54:34;;;;;;;;;;;;;;;21.16;23.11;97576.75;4958680;28;1094;-74
2023/11/27 11:57:13;;;;;;;;;;;;;;;21.44;22.65;97575.06;4972086;28;1162;-74
2023/11/27 11:59:39;;;;;;;;;;;;;;;21.14;23.15;97573.56;4941721;28;1297;-74
2023/11/27 12:02:11;;;;;;;;;;;;;;;21.36;22.76;97565.22;5017533;28;1167;-74
2023/11/27 12:04:40;;;;;;;;;;;;;;;21.35;22.86;97557.97;5001278;28;771;-74
2023/11/27 12:07:07;;;;;;;;;;;;;;;21.45;22.90;97545.50;5017261;28;815;-74
2023/11/27 12:09:33;;;;;;;;;;;;;;;21.52;22.87;97545.28;4997547;28;1903;-75
2023/11/27 12:12:00;;;;;;;;;;;;;;;21.40;22.84;97537.56;4981467;28;812;-74
2023/11/27 12:14:32;;;;;;;;;;;;;;;21.02;23.53;97544.81;5013939;28;807;-74
2023/11/27 12:16:58;;;;;;;;;;;;;;;21.34;22.99;97548.69;5014005;28;1222;-74
2023/11/27 12:19:24;;;;;;;;;;;;;;;21.57;22.74;97553.19;4955415;29;994;-71
2023/11/27 12:21:52;;;;;;;;;;;;;;;21.40;22.95;97557.38;4953253;29;1676;-75
2023/11/27 12:24:19;;;;;;;;;;;;;;;21.22;23.47;97558.75;4947844;29;1607;-74
2023/11/27 12:26:53;;;;;;;;;;;;;;;21.48;22.83;97559.53;4943874;29;1556;-74
2023/11/27 12:29:22;;;;;;;;;;;;;;;21.38;22.94;97565.56;4935632;28;1965;-74
2023/11/27 12:31:50;;;;;;;;;;;;;;;21.40;22.82;97574.38;4927911;29;1350;-74
2023/11/27 12:34:20;;;;;;;;;;;;;;;21.58;22.99;97568.94;4903048;29;1484;-75
2023/11/27 12:36:46;;;;;;;;;;;;;;;21.47;22.88;97585.47;4918307;29;1449;-74
2023/11/27 12:39:25;;;;;;;;;;;;;;;21.64;22.86;97578.44;4904736;29;939;-75
2023/11/27 12:41:51;;;;;;;;;;;;;;;21.44;22.87;97577.88;4920220;29;1046;-74
2023/11/27 12:44:19;;;;;;;;;;;;;;;21.19;23.48;97587.94;4923071;29;1662;-74
2023/11/27 12:46:48;;;;;;;;;;;;;;;21.32;23.51;97588.75;4931686;29;958;-75
2023/11/27 12:49:19;;;;;;;;;;;;;;;21.56;23.00;97599.75;4958850;29;1969;-74
2023/11/27 12:51:45;;;;;;;;;;;;;;;21.41;22.94;97595.78;4943006;29;1245;-75
2023/11/27 12:54:20;;;;;;;;;;;;;;;21.19;23.22;97599.28;4958657;29;1287;-74
2023/11/27 12:56:51;;;;;;;;;;;;;;;21.16;23.49;97597.34;4977073;28;839;-74
2023/11/27 12:59:17;;;;;;;;;;;;;;;21.38;23.35;97596.69;4981502;28;747;-74